Nakhchivan — 9HHK8 — position and weather

sailwx.info

Track history (hours):
 
Tides and Currents Weather Stations Pressure Air Temp Water Temp Dewpoint Dewpoint Depression Visibility Wind Speed Wind Dir Waves Ship Positions

Nakhchivan

Last reported at 2014-Dec-19 15:23 UTC. Time now 2014-Dec-20 01:35 UTC.
Position N 37°51' E 003°14'.

Length 139 m; draft 4.6 m.

Type: Cargo ship. MMSI: 215983000.

Date/timePositionNaut miles runAvg speedWind from/ knotsBaromVisibWave heightAir tempDewpointWater temp
2014-Dec-19 15:23N 37°51' E 003°14'423 9.7
2014-Dec-17 19:33N 35°58' W 005°16'1211.7
2014-Dec-17 18:32N 35°57' W 005°30'266 7.6
2014-Dec-16 07:23N 38°32' W 010°02'11 8.9
2014-Dec-16 06:06N 38°43' W 010°06'  
2014-Dec-11 21:29N 47°21' W 003°06'0 0.0
2014-Dec-11 10:13N 47°21' W 003°06'0 0.0
2014-Dec-11 08:12N 47°21' W 003°06'0 0.0
2014-Dec-11 07:30N 47°21' W 003°06'0 0.0
2014-Dec-11 04:09N 47°21' W 003°06'0 0.0
2014-Dec-11 03:12N 47°21' W 003°06'0 0.0
2014-Dec-11 01:15N 47°21' W 003°06'0 0.0
2014-Dec-10 22:32N 47°21' W 003°06'0 0.0
2014-Dec-10 21:32N 47°21' W 003°06'0 0.0
2014-Dec-10 20:18N 47°21' W 003°06'0 0.0
2014-Dec-10 18:11N 47°21' W 003°06'0 0.0
2014-Dec-10 14:31N 47°21' W 003°06'0 0.0
2014-Dec-10 13:11N 47°21' W 003°06'0 0.0
2014-Dec-10 12:22N 47°21' W 003°06'0 0.0
2014-Dec-10 08:24N 47°21' W 003°06'13 2.1
2014-Dec-10 02:17N 47°26' W 003°23'  
Track history (hours):
 
Tides and Currents Weather Stations Pressure Air Temp Water Temp Dewpoint Dewpoint Depression Visibility Wind Speed Wind Dir Waves Ship Positions

Nakhchivan

Last reported at 2014-Dec-19 15:23 UTC. Time now 2014-Dec-20 01:35 UTC.
Position N 37°51' E 003°14'.

Length 139 m; draft 4.6 m.

Type: Cargo ship. MMSI: 215983000.

Date/timePositionNaut miles runAvg speedWind from/ knotsBaromVisibWave heightAir tempDewpointWater temp
2014-Dec-19 15:23N 37°51' E 003°14'423 9.7
2014-Dec-17 19:33N 35°58' W 005°16'1211.7
2014-Dec-17 18:32N 35°57' W 005°30'266 7.6
2014-Dec-16 07:23N 38°32' W 010°02'11 8.9
2014-Dec-16 06:06N 38°43' W 010°06'  
2014-Dec-11 21:29N 47°21' W 003°06'0 0.0
2014-Dec-11 10:13N 47°21' W 003°06'0 0.0
2014-Dec-11 08:12N 47°21' W 003°06'0 0.0
2014-Dec-11 07:30N 47°21' W 003°06'0 0.0
2014-Dec-11 04:09N 47°21' W 003°06'0 0.0
2014-Dec-11 03:12N 47°21' W 003°06'0 0.0
2014-Dec-11 01:15N 47°21' W 003°06'0 0.0
2014-Dec-10 22:32N 47°21' W 003°06'0 0.0
2014-Dec-10 21:32N 47°21' W 003°06'0 0.0
2014-Dec-10 20:18N 47°21' W 003°06'0 0.0
2014-Dec-10 18:11N 47°21' W 003°06'0 0.0
2014-Dec-10 14:31N 47°21' W 003°06'0 0.0
2014-Dec-10 13:11N 47°21' W 003°06'0 0.0
2014-Dec-10 12:22N 47°21' W 003°06'0 0.0
2014-Dec-10 08:24N 47°21' W 003°06'13 2.1
2014-Dec-10 02:17N 47°26' W 003°23'  

Dump ship's entire track history